Time;durP1;ratioP1;P1;durP2;ratioP2;P2;SDS_P1;SDS_P2;PMS_P1;PMS_P2;Temp;Humidity;BMP_temperature;BMP_pressure;BME280_temperature;BME280_humidity;BME280_pressure;Samples;Min_cycle;Max_cycle;Signal;HPM_P1;HPM_P2
2023/07/31 00:00:08;;;;;;;;;;;18.20;81.30;;;;;;4947439;28;20024;-69
2023/07/31 00:02:35;;;;;;;;;;;18.10;81.20;;;;;;4957753;28;20048;-71
2023/07/31 00:05:03;;;;;;;;;;;18.10;81.10;;;;;;4948576;28;19935;-72
2023/07/31 00:07:29;;;;;;;;;;;18.10;81.40;;;;;;4950988;28;19930;-71
2023/07/31 00:10:11;;;;;;;;;;;18.20;81.20;;;;;;4931955;28;20684;-68
2023/07/31 00:12:46;;;;;;;;;;;18.20;81.40;;;;;;4956668;28;19941;-70
2023/07/31 00:15:14;;;;;;;;;;;18.10;81.00;;;;;;4950421;28;19926;-67
2023/07/31 00:17:41;;;;;;;;;;;18.10;81.10;;;;;;4954122;28;20001;-68
2023/07/31 00:20:08;;;;;;;;;;;18.10;81.10;;;;;;4957551;28;19933;-68
2023/07/31 00:22:36;;;;;;;;;;;18.10;81.10;;;;;;4956562;28;19959;-66
2023/07/31 00:25:06;;;;;;;;;;;18.10;80.90;;;;;;4954534;28;20021;-68
2023/07/31 00:27:33;;;;;;;;;;;18.10;80.80;;;;;;4950143;28;19930;-69
2023/07/31 00:30:01;;;;;;;;;;;18.10;80.40;;;;;;4942692;28;19935;-68
2023/07/31 00:32:28;;;;;;;;;;;18.10;80.50;;;;;;4955716;28;20603;-66
2023/07/31 00:34:56;;;;;;;;;;;18.10;80.40;;;;;;4960190;28;20021;-67
2023/07/31 00:37:23;;;;;;;;;;;18.10;80.00;;;;;;4958613;28;20020;-68
2023/07/31 00:39:50;;;;;;;;;;;18.10;79.70;;;;;;4959094;28;19936;-67
2023/07/31 00:42:18;;;;;;;;;;;18.10;79.10;;;;;;4956853;28;19942;-68
2023/07/31 00:44:44;;;;;;;;;;;18.10;78.90;;;;;;4958099;28;19984;-67
2023/07/31 00:47:13;;;;;;;;;;;18.10;79.00;;;;;;4961949;28;20009;-68
2023/07/31 00:49:40;;;;;;;;;;;18.10;78.90;;;;;;4960832;28;19926;-69
2023/07/31 00:52:08;;;;;;;;;;;18.10;78.90;;;;;;4963357;28;19982;-68
2023/07/31 00:54:35;;;;;;;;;;;18.10;79.00;;;;;;4961590;28;19930;-68
2023/07/31 00:57:02;;;;;;;;;;;18.10;79.20;;;;;;4959385;28;19930;-68
2023/07/31 00:59:29;;;;;;;;;;;18.10;79.10;;;;;;4961832;28;20388;-68
2023/07/31 01:01:56;;;;;;;;;;;18.10;78.60;;;;;;4960163;28;19941;-68
2023/07/31 01:04:24;;;;;;;;;;;18.10;78.60;;;;;;4961951;28;19977;-68
2023/07/31 01:06:55;;;;;;;;;;;18.10;78.40;;;;;;4960119;28;19954;-68
2023/07/31 01:09:30;;;;;;;;;;;18.10;78.50;;;;;;4960129;28;20009;-70
2023/07/31 01:11:59;;;;;;;;;;;18.10;78.60;;;;;;4959964;28;20001;-71
2023/07/31 01:14:26;;;;;;;;;;;18.10;78.30;;;;;;4959950;28;19933;-69
2023/07/31 01:16:53;;;;;;;;;;;18.10;78.20;;;;;;4975075;28;19937;-69
2023/07/31 01:19:23;;;;;;;;;;;18.10;78.30;;;;;;4961581;28;20058;-68
2023/07/31 01:22:04;;;;;;;;;;;18.10;78.00;;;;;;4960226;28;19941;-71
2023/07/31 01:24:36;;;;;;;;;;;18.10;78.00;;;;;;4958517;28;20300;-70
2023/07/31 01:27:07;;;;;;;;;;;18.10;78.10;;;;;;4961312;28;19931;-69
2023/07/31 01:29:37;;;;;;;;;;;18.10;78.40;;;;;;4956102;28;19930;-71
2023/07/31 01:32:05;;;;;;;;;;;18.00;78.40;;;;;;4957854;28;19934;-70
2023/07/31 01:34:33;;;;;;;;;;;18.10;78.20;;;;;;4933425;28;19961;-69
2023/07/31 01:37:00;;;;;;;;;;;18.00;78.30;;;;;;4959886;28;20370;-70
2023/07/31 01:39:27;;;;;;;;;;;18.10;78.60;;;;;;4957421;28;19926;-70
2023/07/31 01:41:54;;;;;;;;;;;18.00;78.70;;;;;;4965705;28;19937;-69
2023/07/31 01:44:23;;;;;;;;;;;18.00;79.00;;;;;;4959825;28;19931;-68
2023/07/31 01:46:50;;;;;;;;;;;18.00;79.10;;;;;;4958107;28;19933;-70
2023/07/31 01:49:17;;;;;;;;;;;18.00;79.00;;;;;;4959797;28;19935;-68
2023/07/31 01:51:44;;;;;;;;;;;18.00;79.10;;;;;;4959280;28;19927;-69
2023/07/31 01:54:11;;;;;;;;;;;18.00;79.00;;;;;;4974097;28;20013;-69
2023/07/31 01:56:39;;;;;;;;;;;18.00;79.20;;;;;;4957733;28;19930;-69
2023/07/31 01:59:06;;;;;;;;;;;18.00;79.50;;;;;;4956686;28;20029;-69
2023/07/31 02:01:34;;;;;;;;;;;18.00;79.60;;;;;;4955536;28;20400;-69
2023/07/31 02:04:01;;;;;;;;;;;18.00;79.90;;;;;;4959097;28;19926;-68
2023/07/31 02:06:28;;;;;;;;;;;17.90;79.90;;;;;;4957817;28;20006;-69
2023/07/31 02:08:55;;;;;;;;;;;18.00;80.40;;;;;;4972600;28;19933;-69
2023/07/31 02:11:23;;;;;;;;;;;18.00;80.20;;;;;;4958637;28;20021;-70
2023/07/31 02:13:51;;;;;;;;;;;17.90;80.30;;;;;;4962548;28;20828;-69
2023/07/31 02:16:18;;;;;;;;;;;18.00;80.40;;;;;;4971603;28;20014;-71
2023/07/31 02:18:46;;;;;;;;;;;18.00;80.80;;;;;;4962880;28;19926;-72
2023/07/31 02:21:13;;;;;;;;;;;18.00;81.00;;;;;;4956187;28;19930;-71
2023/07/31 02:23:40;;;;;;;;;;;17.90;80.80;;;;;;4959720;28;19930;-71
2023/07/31 02:26:07;;;;;;;;;;;17.90;80.60;;;;;;4958159;28;19985;-69
2023/07/31 02:28:34;;;;;;;;;;;17.90;80.80;;;;;;4949884;28;20005;-71
2023/07/31 02:31:01;;;;;;;;;;;17.90;81.00;;;;;;4960478;28;19930;-71
2023/07/31 02:33:28;;;;;;;;;;;17.90;81.10;;;;;;4957526;28;19930;-71
2023/07/31 02:35:56;;;;;;;;;;;17.90;81.10;;;;;;4961609;28;20407;-71
2023/07/31 02:38:23;;;;;;;;;;;17.90;81.10;;;;;;4959057;28;20013;-71
2023/07/31 02:40:50;;;;;;;;;;;17.90;81.00;;;;;;4961642;28;19973;-70
2023/07/31 02:43:17;;;;;;;;;;;17.90;80.90;;;;;;4958076;28;19930;-71
2023/07/31 02:45:54;;;;;;;;;;;17.90;80.50;;;;;;4959107;28;19926;-71
2023/07/31 02:48:22;;;;;;;;;;;17.90;80.50;;;;;;4957543;28;19930;-71
2023/07/31 02:50:49;;;;;;;;;;;17.90;80.30;;;;;;4959554;28;19956;-72
2023/07/31 02:53:17;;;;;;;;;;;17.90;80.20;;;;;;4958378;28;20309;-71
2023/07/31 02:55:45;;;;;;;;;;;17.90;80.20;;;;;;4961646;28;19934;-71
2023/07/31 02:58:12;;;;;;;;;;;17.90;80.00;;;;;;4958434;28;19965;-72
2023/07/31 03:00:42;;;;;;;;;;;17.90;80.00;;;;;;4957750;28;19926;-71
2023/07/31 03:03:09;;;;;;;;;;;17.90;80.00;;;;;;4957220;28;20412;-70
2023/07/31 03:05:36;;;;;;;;;;;17.90;79.90;;;;;;4973292;28;19935;-71
2023/07/31 03:08:04;;;;;;;;;;;17.90;79.50;;;;;;4958825;28;19984;-71
2023/07/31 03:10:32;;;;;;;;;;;17.90;79.60;;;;;;4958401;28;19965;-71
2023/07/31 03:12:59;;;;;;;;;;;17.90;79.60;;;;;;4958995;28;20400;-71
2023/07/31 03:15:26;;;;;;;;;;;17.80;79.50;;;;;;4961834;28;19934;-71
2023/07/31 03:17:53;;;;;;;;;;;17.80;79.60;;;;;;4961489;28;19926;-72
2023/07/31 03:20:20;;;;;;;;;;;17.80;79.60;;;;;;4958260;28;20009;-71
2023/07/31 03:22:47;;;;;;;;;;;17.80;79.40;;;;;;4973564;28;19938;-71
2023/07/31 03:25:14;;;;;;;;;;;17.80;79.20;;;;;;4964118;28;20029;-72
2023/07/31 03:27:42;;;;;;;;;;;17.90;79.20;;;;;;4946179;28;19931;-72
2023/07/31 03:30:09;;;;;;;;;;;17.90;79.00;;;;;;4950494;28;20433;-70
2023/07/31 03:32:37;;;;;;;;;;;17.90;79.00;;;;;;4972871;28;20714;-70
2023/07/31 03:35:05;;;;;;;;;;;17.80;78.90;;;;;;4958197;28;19936;-72
2023/07/31 03:37:32;;;;;;;;;;;17.90;79.00;;;;;;4957505;28;19926;-71
2023/07/31 03:39:59;;;;;;;;;;;17.90;79.10;;;;;;4957619;28;19976;-72
2023/07/31 03:42:26;;;;;;;;;;;17.80;79.10;;;;;;4957991;28;21878;-71
2023/07/31 03:44:54;;;;;;;;;;;17.90;78.70;;;;;;4956847;28;19934;-72
2023/07/31 03:47:21;;;;;;;;;;;17.80;78.40;;;;;;4955058;28;19962;-71
2023/07/31 03:49:48;;;;;;;;;;;17.90;78.20;;;;;;4952863;28;19931;-72
2023/07/31 03:52:15;;;;;;;;;;;17.90;77.90;;;;;;4955944;28;19935;-71
2023/07/31 03:54:44;;;;;;;;;;;17.90;78.00;;;;;;4952307;28;20017;-70
2023/07/31 03:57:11;;;;;;;;;;;17.90;78.20;;;;;;4955004;28;19933;-71
2023/07/31 03:59:39;;;;;;;;;;;17.90;78.50;;;;;;4956301;28;19938;-72
2023/07/31 04:02:07;;;;;;;;;;;17.90;78.50;;;;;;4955041;28;19977;-72
2023/07/31 04:04:34;;;;;;;;;;;17.90;78.70;;;;;;4955326;28;19941;-70
2023/07/31 04:07:01;;;;;;;;;;;17.90;78.10;;;;;;4942345;28;19954;-71
2023/07/31 04:09:28;;;;;;;;;;;17.90;78.10;;;;;;4955270;28;19984;-72
2023/07/31 04:11:55;;;;;;;;;;;17.80;77.60;;;;;;4955431;28;19942;-71
2023/07/31 04:14:22;;;;;;;;;;;17.80;77.40;;;;;;4955394;28;19935;-71
2023/07/31 04:16:49;;;;;;;;;;;17.80;77.50;;;;;;4956245;28;19942;-71
2023/07/31 04:19:17;;;;;;;;;;;17.80;77.40;;;;;;4957936;28;19936;-71
2023/07/31 04:21:44;;;;;;;;;;;17.80;77.40;;;;;;4958397;28;20041;-72
2023/07/31 04:24:11;;;;;;;;;;;17.90;77.10;;;;;;4961092;28;19941;-71
2023/07/31 04:26:38;;;;;;;;;;;17.90;77.10;;;;;;4958431;28;20022;-71
2023/07/31 04:29:05;;;;;;;;;;;17.90;77.30;;;;;;4959214;28;19930;-72
2023/07/31 04:31:32;;;;;;;;;;;17.90;77.50;;;;;;4960654;28;20020;-71
2023/07/31 04:33:59;;;;;;;;;;;17.90;77.60;;;;;;4962465;28;19931;-72
2023/07/31 04:36:27;;;;;;;;;;;17.90;77.70;;;;;;4959793;28;20432;-66
2023/07/31 04:38:54;;;;;;;;;;;17.90;77.60;;;;;;4961380;28;20393;-66
2023/07/31 04:41:21;;;;;;;;;;;17.90;77.40;;;;;;4959919;28;20381;-66
2023/07/31 04:43:48;;;;;;;;;;;17.90;77.20;;;;;;4959961;28;20005;-68
2023/07/31 04:46:15;;;;;;;;;;;18.00;76.90;;;;;;4959271;28;20001;-67
2023/07/31 04:48:43;;;;;;;;;;;18.00;76.90;;;;;;4959920;28;19934;-67
2023/07/31 04:51:10;;;;;;;;;;;18.00;76.80;;;;;;4958870;28;19926;-66
2023/07/31 04:53:38;;;;;;;;;;;18.10;76.80;;;;;;4960040;28;19937;-66
2023/07/31 04:56:05;;;;;;;;;;;18.10;76.80;;;;;;4961076;28;19950;-68
2023/07/31 04:58:32;;;;;;;;;;;18.10;76.60;;;;;;4947738;28;20433;-66
2023/07/31 05:00:59;;;;;;;;;;;18.10;76.60;;;;;;4946125;28;19933;-66
2023/07/31 05:03:26;;;;;;;;;;;18.10;76.70;;;;;;4955036;28;19934;-66
2023/07/31 05:05:53;;;;;;;;;;;18.10;76.80;;;;;;4949828;28;20302;-66
2023/07/31 05:08:20;;;;;;;;;;;18.10;76.90;;;;;;4938781;28;19931;-66
2023/07/31 05:10:48;;;;;;;;;;;18.10;77.00;;;;;;4953318;28;19973;-67
2023/07/31 05:13:15;;;;;;;;;;;18.10;77.20;;;;;;4959077;28;19974;-65
2023/07/31 05:15:45;;;;;;;;;;;18.10;77.40;;;;;;4961581;28;19931;-65
2023/07/31 05:18:12;;;;;;;;;;;18.10;77.60;;;;;;4962359;28;19941;-66
2023/07/31 05:20:39;;;;;;;;;;;18.10;77.90;;;;;;4959737;28;19926;-66
2023/07/31 05:23:06;;;;;;;;;;;18.10;77.90;;;;;;4960889;28;20021;-66
2023/07/31 05:25:33;;;;;;;;;;;18.10;78.10;;;;;;4963606;28;20385;-68
2023/07/31 05:28:02;;;;;;;;;;;18.00;78.30;;;;;;4956460;28;19993;-66
2023/07/31 05:30:30;;;;;;;;;;;18.00;78.00;;;;;;4959860;28;19930;-67
2023/07/31 05:32:57;;;;;;;;;;;18.10;78.10;;;;;;4960143;28;19926;-67
2023/07/31 05:35:30;;;;;;;;;;;18.00;78.10;;;;;;4959589;28;19989;-66
2023/07/31 05:37:57;;;;;;;;;;;18.10;78.20;;;;;;4961320;28;19930;-67
2023/07/31 05:40:24;;;;;;;;;;;18.10;78.10;;;;;;4958749;28;19945;-68
2023/07/31 05:42:51;;;;;;;;;;;18.10;78.20;;;;;;4951027;28;19930;-66
2023/07/31 05:45:19;;;;;;;;;;;18.10;78.30;;;;;;4960142;28;19954;-66
2023/07/31 05:47:46;;;;;;;;;;;18.10;78.40;;;;;;4961557;28;19965;-74
2023/07/31 05:50:14;;;;;;;;;;;18.10;78.10;;;;;;4961752;28;19930;-76
2023/07/31 05:52:41;;;;;;;;;;;18.10;77.90;;;;;;4961316;28;20288;-75
2023/07/31 05:55:08;;;;;;;;;;;18.10;77.70;;;;;;4958464;28;19945;-74
2023/07/31 05:57:36;;;;;;;;;;;18.10;77.60;;;;;;4961430;28;19959;-76
2023/07/31 06:00:06;;;;;;;;;;;18.10;77.40;;;;;;4957815;28;20010;-75
2023/07/31 06:02:48;;;;;;;;;;;18.10;77.40;;;;;;4958354;28;20591;-74
2023/07/31 06:05:23;;;;;;;;;;;18.10;77.40;;;;;;4960974;28;19933;-75
2023/07/31 06:08:02;;;;;;;;;;;18.20;77.50;;;;;;4958277;28;20001;-74
2023/07/31 06:10:38;;;;;;;;;;;18.20;77.50;;;;;;4959860;28;19969;-75
2023/07/31 06:13:17;;;;;;;;;;;18.10;77.50;;;;;;4959250;28;19969;-74
2023/07/31 06:15:50;;;;;;;;;;;18.20;77.50;;;;;;4959074;28;19934;-75
2023/07/31 06:18:31;;;;;;;;;;;18.20;77.50;;;;;;4959247;28;19934;-76
2023/07/31 06:21:04;;;;;;;;;;;18.20;77.60;;;;;;4959884;28;19934;-75
2023/07/31 06:23:43;;;;;;;;;;;18.20;77.60;;;;;;4959751;28;19971;-76
2023/07/31 06:26:42;;;;;;;;;;;18.20;77.60;;;;;;4959228;28;19982;-75
2023/07/31 06:29:55;;;;;;;;;;;18.20;77.50;;;;;;4957340;28;19937;-74
2023/07/31 06:32:40;;;;;;;;;;;18.30;77.20;;;;;;4959172;28;19926;-75
2023/07/31 06:35:20;;;;;;;;;;;18.30;77.20;;;;;;4959840;28;19935;-74
2023/07/31 06:38:12;;;;;;;;;;;18.30;77.00;;;;;;4959325;28;19930;-74
2023/07/31 06:41:06;;;;;;;;;;;18.30;77.00;;;;;;4958160;28;20681;-73
2023/07/31 06:43:39;;;;;;;;;;;18.40;76.50;;;;;;4960400;28;19986;-73
2023/07/31 06:46:24;;;;;;;;;;;18.40;76.20;;;;;;4956099;28;19938;-74
2023/07/31 06:48:54;;;;;;;;;;;18.50;76.00;;;;;;4959876;28;19933;-77
2023/07/31 06:51:23;;;;;;;;;;;18.60;75.50;;;;;;4959022;28;19937;-76
2023/07/31 06:53:50;;;;;;;;;;;18.60;75.40;;;;;;4958870;28;19997;-74
2023/07/31 06:56:17;;;;;;;;;;;18.60;75.30;;;;;;4960363;28;19990;-67
2023/07/31 06:58:44;;;;;;;;;;;18.60;75.20;;;;;;4962509;28;20021;-69
2023/07/31 07:01:11;;;;;;;;;;;18.60;75.20;;;;;;4957856;28;19941;-68
2023/07/31 07:03:38;;;;;;;;;;;18.60;75.10;;;;;;4957164;28;19934;-68
2023/07/31 07:06:05;;;;;;;;;;;18.60;75.00;;;;;;4955855;28;19930;-67
2023/07/31 07:08:33;;;;;;;;;;;18.60;74.90;;;;;;4959181;28;19930;-68
2023/07/31 07:11:00;;;;;;;;;;;18.70;74.90;;;;;;4960592;28;20001;-67
2023/07/31 07:13:27;;;;;;;;;;;18.70;74.90;;;;;;4961474;28;19930;-69
2023/07/31 07:15:54;;;;;;;;;;;18.80;74.90;;;;;;4960335;28;19937;-67
2023/07/31 07:18:21;;;;;;;;;;;18.80;74.50;;;;;;4960433;28;20449;-68
2023/07/31 07:20:50;;;;;;;;;;;18.90;74.40;;;;;;4959258;28;19933;-68
2023/07/31 07:23:39;;;;;;;;;;;19.00;74.30;;;;;;4960460;28;19930;-68
2023/07/31 07:26:12;;;;;;;;;;;19.00;74.20;;;;;;4941241;28;19977;-68
2023/07/31 07:28:42;;;;;;;;;;;19.10;74.10;;;;;;4959931;28;19934;-66
2023/07/31 07:31:12;;;;;;;;;;;19.10;73.80;;;;;;4958921;28;19938;-69
2023/07/31 07:33:39;;;;;;;;;;;19.20;73.60;;;;;;4958865;28;19937;-67
2023/07/31 07:36:09;;;;;;;;;;;19.20;73.60;;;;;;4959424;28;19934;-67
2023/07/31 07:38:40;;;;;;;;;;;19.30;73.40;;;;;;4954098;28;19930;-68
2023/07/31 07:41:07;;;;;;;;;;;19.50;73.00;;;;;;4958219;28;19933;-68
2023/07/31 07:43:36;;;;;;;;;;;19.60;73.00;;;;;;4955668;28;19934;-68
2023/07/31 07:46:03;;;;;;;;;;;19.60;73.10;;;;;;4958093;28;19930;-70
2023/07/31 07:48:30;;;;;;;;;;;19.60;73.00;;;;;;4959647;28;19984;-67
2023/07/31 07:50:57;;;;;;;;;;;19.70;72.80;;;;;;4942439;28;19930;-67
2023/07/31 07:53:24;;;;;;;;;;;19.90;72.30;;;;;;4959753;28;19941;-66
2023/07/31 07:55:51;;;;;;;;;;;20.00;72.00;;;;;;4960380;28;20016;-67
2023/07/31 07:58:18;;;;;;;;;;;20.10;71.80;;;;;;4957894;28;19930;-67
2023/07/31 08:00:51;;;;;;;;;;;20.10;71.60;;;;;;4957072;28;19978;-67
2023/07/31 08:03:18;;;;;;;;;;;20.00;71.60;;;;;;4957728;28;20373;-68
2023/07/31 08:05:45;;;;;;;;;;;20.00;71.70;;;;;;4960797;28;19941;-69
2023/07/31 08:08:15;;;;;;;;;;;20.00;71.70;;;;;;4958698;28;19977;-68
2023/07/31 08:10:42;;;;;;;;;;;20.00;71.60;;;;;;4951171;28;19974;-70
2023/07/31 08:13:10;;;;;;;;;;;19.90;71.60;;;;;;4958197;28;19939;-67
2023/07/31 08:15:46;;;;;;;;;;;19.90;71.70;;;;;;4942935;28;19934;-69
2023/07/31 08:18:18;;;;;;;;;;;19.90;71.70;;;;;;4939529;28;19926;-69
2023/07/31 08:20:45;;;;;;;;;;;19.90;71.70;;;;;;4939288;28;19966;-70
2023/07/31 08:23:12;;;;;;;;;;;19.90;71.70;;;;;;4955773;28;19934;-70
2023/07/31 08:25:39;;;;;;;;;;;19.90;71.80;;;;;;4959502;28;19931;-69
2023/07/31 08:28:07;;;;;;;;;;;19.90;71.80;;;;;;4971159;28;20393;-68
2023/07/31 08:30:34;;;;;;;;;;;20.00;71.90;;;;;;4958280;28;19926;-70
2023/07/31 08:33:01;;;;;;;;;;;20.10;71.80;;;;;;4973159;28;19937;-70
2023/07/31 08:35:29;;;;;;;;;;;20.20;71.40;;;;;;4958482;28;19934;-69
2023/07/31 08:37:56;;;;;;;;;;;20.50;71.50;;;;;;4959817;28;19982;-70
2023/07/31 08:40:24;;;;;;;;;;;20.60;71.00;;;;;;4959553;28;19935;-69
2023/07/31 08:42:51;;;;;;;;;;;20.60;70.50;;;;;;4958623;28;19930;-70
2023/07/31 08:45:19;;;;;;;;;;;20.70;70.10;;;;;;4957826;28;19931;-70
2023/07/31 08:47:48;;;;;;;;;;;20.80;70.00;;;;;;4959176;28;20301;-70
2023/07/31 08:50:16;;;;;;;;;;;21.00;69.80;;;;;;4956209;28;19934;-70
2023/07/31 08:52:44;;;;;;;;;;;21.10;69.70;;;;;;4958319;28;19985;-71
2023/07/31 08:55:11;;;;;;;;;;;21.10;69.60;;;;;;4957945;28;20389;-70
2023/07/31 08:57:38;;;;;;;;;;;21.20;69.30;;;;;;4957263;28;19934;-70
2023/07/31 09:00:06;;;;;;;;;;;21.30;69.20;;;;;;4933532;29;19949;-71
2023/07/31 09:02:35;;;;;;;;;;;21.70;68.70;;;;;;4951631;28;20020;-70
2023/07/31 09:05:03;;;;;;;;;;;22.00;68.00;;;;;;4958895;28;20019;-70
2023/07/31 09:07:32;;;;;;;;;;;21.90;68.10;;;;;;4957724;28;20017;-71
2023/07/31 09:10:00;;;;;;;;;;;21.80;68.00;;;;;;4960599;28;19989;-69
2023/07/31 09:12:27;;;;;;;;;;;21.70;68.10;;;;;;4962517;28;19957;-70
2023/07/31 09:15:06;;;;;;;;;;;21.80;67.80;;;;;;4960741;28;20475;-69
2023/07/31 09:17:41;;;;;;;;;;;21.80;67.50;;;;;;4963600;28;19926;-68
2023/07/31 09:20:14;;;;;;;;;;;22.00;67.40;;;;;;4962072;28;19930;-68
2023/07/31 09:22:42;;;;;;;;;;;22.00;67.30;;;;;;4960634;28;19930;-68
2023/07/31 09:25:17;;;;;;;;;;;22.10;67.30;;;;;;4958950;28;20017;-68
2023/07/31 09:27:48;;;;;;;;;;;22.10;66.40;;;;;;4962227;28;20294;-68
2023/07/31 09:30:15;;;;;;;;;;;22.20;66.30;;;;;;4959987;28;19978;-68
2023/07/31 09:32:43;;;;;;;;;;;22.20;66.40;;;;;;4960404;28;19935;-67
2023/07/31 09:35:20;;;;;;;;;;;22.20;66.70;;;;;;4960874;28;19937;-69
2023/07/31 09:37:51;;;;;;;;;;;22.10;65.90;;;;;;4961559;28;20012;-67
2023/07/31 09:40:30;;;;;;;;;;;22.20;65.10;;;;;;4960549;28;20812;-68
2023/07/31 09:42:58;;;;;;;;;;;22.20;64.80;;;;;;4961838;28;19980;-68
2023/07/31 09:45:25;;;;;;;;;;;22.20;65.00;;;;;;4961232;28;19926;-69
2023/07/31 09:47:52;;;;;;;;;;;22.10;65.70;;;;;;4960300;28;19941;-68
2023/07/31 09:50:21;;;;;;;;;;;22.00;65.60;;;;;;4962479;28;20382;-67
2023/07/31 09:52:48;;;;;;;;;;;21.90;65.50;;;;;;4960192;28;20312;-68
2023/07/31 09:55:15;;;;;;;;;;;21.70;65.50;;;;;;4960011;28;19957;-68
2023/07/31 09:57:45;;;;;;;;;;;21.60;65.70;;;;;;4961547;28;19941;-68
2023/07/31 10:00:12;;;;;;;;;;;21.50;66.00;;;;;;4961081;28;19930;-67
2023/07/31 10:02:39;;;;;;;;;;;21.40;66.40;;;;;;4962139;28;19933;-70
2023/07/31 10:05:07;;;;;;;;;;;21.30;66.90;;;;;;4960005;28;19926;-68
2023/07/31 10:07:37;;;;;;;;;;;21.20;67.70;;;;;;4961289;28;19937;-68
2023/07/31 10:10:05;;;;;;;;;;;21.10;68.20;;;;;;4960663;28;19934;-68
2023/07/31 10:12:32;;;;;;;;;;;21.00;69.20;;;;;;4975238;28;19927;-69
2023/07/31 10:15:01;;;;;;;;;;;21.10;70.20;;;;;;4961959;28;20451;-69
2023/07/31 10:17:30;;;;;;;;;;;21.10;70.70;;;;;;4960660;28;19930;-69
2023/07/31 10:19:58;;;;;;;;;;;21.10;71.10;;;;;;4964653;28;19926;-70
2023/07/31 10:22:26;;;;;;;;;;;21.00;71.50;;;;;;4958692;28;19999;-68
2023/07/31 10:24:55;;;;;;;;;;;21.00;71.80;;;;;;4961275;28;20386;-68
2023/07/31 10:27:22;;;;;;;;;;;21.10;72.00;;;;;;4959499;28;20448;-69
2023/07/31 10:29:50;;;;;;;;;;;21.10;72.00;;;;;;4960789;28;19934;-69
2023/07/31 10:32:18;;;;;;;;;;;21.10;72.50;;;;;;4960214;28;19926;-69
2023/07/31 10:34:46;;;;;;;;;;;21.10;73.10;;;;;;4960769;28;19970;-69
2023/07/31 10:37:23;;;;;;;;;;;21.10;73.30;;;;;;4960316;28;20002;-69
2023/07/31 10:39:59;;;;;;;;;;;21.20;73.00;;;;;;4959724;28;19931;-68
2023/07/31 10:42:29;;;;;;;;;;;21.30;72.80;;;;;;4961265;28;19962;-69
2023/07/31 10:45:00;;;;;;;;;;;21.30;72.60;;;;;;4961080;28;19942;-68
2023/07/31 10:47:31;;;;;;;;;;;21.30;73.00;;;;;;4962114;28;19933;-70
2023/07/31 10:50:17;;;;;;;;;;;21.30;72.90;;;;;;4958128;28;19930;-69
2023/07/31 10:52:45;;;;;;;;;;;21.40;73.00;;;;;;4958911;28;20033;-68
2023/07/31 10:55:29;;;;;;;;;;;21.40;73.10;;;;;;4960088;28;19934;-68
2023/07/31 10:57:57;;;;;;;;;;;21.50;73.70;;;;;;4960070;28;20297;-69
2023/07/31 11:00:26;;;;;;;;;;;21.60;73.40;;;;;;4961051;28;19993;-69
2023/07/31 11:03:01;;;;;;;;;;;21.60;73.50;;;;;;4959851;28;19935;-69
2023/07/31 11:05:44;;;;;;;;;;;21.50;73.70;;;;;;4960588;28;21347;-69
2023/07/31 11:08:12;;;;;;;;;;;21.50;73.70;;;;;;4957809;28;19926;-69
2023/07/31 11:10:39;;;;;;;;;;;21.40;74.00;;;;;;4961333;28;19949;-69
2023/07/31 11:13:06;;;;;;;;;;;21.40;74.30;;;;;;4960475;28;20370;-70
2023/07/31 11:15:33;;;;;;;;;;;21.40;74.10;;;;;;4951633;28;19938;-69
2023/07/31 11:18:05;;;;;;;;;;;21.40;73.80;;;;;;4960538;28;19973;-70
2023/07/31 11:20:32;;;;;;;;;;;21.40;73.50;;;;;;4949778;28;19937;-70
2023/07/31 11:23:00;;;;;;;;;;;21.30;73.80;;;;;;4956336;28;19927;-68
2023/07/31 11:25:27;;;;;;;;;;;21.20;74.00;;;;;;4957336;28;20363;-70
2023/07/31 11:27:56;;;;;;;;;;;21.20;74.10;;;;;;4958259;28;19985;-69
2023/07/31 11:30:23;;;;;;;;;;;21.10;74.50;;;;;;4957439;28;19930;-68
2023/07/31 11:32:51;;;;;;;;;;;21.10;74.80;;;;;;4958296;28;19937;-69
2023/07/31 11:35:19;;;;;;;;;;;21.10;75.10;;;;;;4958842;28;20033;-68
2023/07/31 11:38:04;;;;;;;;;;;21.10;75.10;;;;;;4956940;28;19938;-75
2023/07/31 11:40:44;;;;;;;;;;;21.10;75.10;;;;;;4948425;28;20341;-72
2023/07/31 11:43:16;;;;;;;;;;;21.10;76.20;;;;;;4961117;28;20333;-72
2023/07/31 11:45:45;;;;;;;;;;;21.00;76.90;;;;;;4944403;28;19938;-73
2023/07/31 11:48:19;;;;;;;;;;;21.00;76.70;;;;;;4938732;28;19934;-72
2023/07/31 11:50:49;;;;;;;;;;;20.90;76.90;;;;;;4961215;28;20389;-73
2023/07/31 11:53:16;;;;;;;;;;;20.90;77.60;;;;;;4957752;28;19933;-73
2023/07/31 11:55:44;;;;;;;;;;;20.90;77.30;;;;;;4959804;28;19934;-72
2023/07/31 11:58:11;;;;;;;;;;;20.90;77.00;;;;;;4957925;28;20028;-72
2023/07/31 12:00:38;;;;;;;;;;;20.90;77.30;;;;;;4960172;28;19934;-72
2023/07/31 12:03:05;;;;;;;;;;;20.90;77.40;;;;;;4959615;28;19934;-73
2023/07/31 12:05:32;;;;;;;;;;;20.90;77.20;;;;;;4949566;28;20009;-73
2023/07/31 12:08:01;;;;;;;;;;;20.80;77.40;;;;;;4936847;29;19927;-74
2023/07/31 12:10:29;;;;;;;;;;;20.90;77.50;;;;;;4958097;28;19926;-73
2023/07/31 12:12:56;;;;;;;;;;;20.90;77.90;;;;;;4957852;28;19930;-73
2023/07/31 12:15:31;;;;;;;;;;;20.90;78.30;;;;;;4957611;28;20037;-73
2023/07/31 12:17:59;;;;;;;;;;;20.90;78.60;;;;;;4958788;28;20459;-73
2023/07/31 12:20:26;;;;;;;;;;;20.90;78.50;;;;;;4958156;28;20021;-73
2023/07/31 12:23:04;;;;;;;;;;;20.90;78.20;;;;;;4958477;28;19977;-72
2023/07/31 12:25:32;;;;;;;;;;;20.90;78.40;;;;;;4958234;28;19961;-74
2023/07/31 12:28:04;;;;;;;;;;;20.90;78.50;;;;;;4958566;28;19969;-73
2023/07/31 12:30:34;;;;;;;;;;;20.90;78.10;;;;;;4953241;28;19927;-73
2023/07/31 12:33:04;;;;;;;;;;;20.80;78.50;;;;;;4954950;28;19957;-73
2023/07/31 12:35:37;;;;;;;;;;;20.80;78.80;;;;;;4958199;28;19973;-74
2023/07/31 12:38:06;;;;;;;;;;;20.80;79.10;;;;;;4956835;28;19955;-73
2023/07/31 12:40:33;;;;;;;;;;;20.80;78.80;;;;;;4960696;28;19933;-72
2023/07/31 12:43:03;;;;;;;;;;;20.80;78.80;;;;;;4960043;28;20381;-73
2023/07/31 12:45:31;;;;;;;;;;;20.90;78.80;;;;;;4963170;28;19965;-74
2023/07/31 12:47:59;;;;;;;;;;;20.90;78.70;;;;;;4962769;28;19934;-68
2023/07/31 12:50:26;;;;;;;;;;;20.90;78.70;;;;;;4962010;28;19941;-66
2023/07/31 12:52:54;;;;;;;;;;;20.90;78.00;;;;;;4961604;28;19934;-67
2023/07/31 12:55:22;;;;;;;;;;;20.80;77.70;;;;;;4959651;28;20297;-67
2023/07/31 12:57:49;;;;;;;;;;;20.80;77.50;;;;;;4965010;28;19937;-67
2023/07/31 13:00:17;;;;;;;;;;;20.80;78.00;;;;;;4962212;28;19926;-67
2023/07/31 13:02:44;;;;;;;;;;;20.80;78.00;;;;;;4963136;28;19997;-67
2023/07/31 13:05:11;;;;;;;;;;;20.80;77.60;;;;;;4957313;28;19933;-67
2023/07/31 13:07:38;;;;;;;;;;;21.00;76.40;;;;;;4960907;28;19985;-67
2023/07/31 13:10:06;;;;;;;;;;;21.10;74.40;;;;;;4962705;28;19930;-67
2023/07/31 13:12:34;;;;;;;;;;;21.10;72.90;;;;;;4962462;28;20338;-66
2023/07/31 13:15:01;;;;;;;;;;;21.20;72.60;;;;;;4955476;28;19934;-65
2023/07/31 13:17:28;;;;;;;;;;;21.20;71.70;;;;;;4960476;28;20026;-67
2023/07/31 13:19:55;;;;;;;;;;;21.20;71.60;;;;;;4961838;28;19974;-67
2023/07/31 13:22:22;;;;;;;;;;;21.20;71.40;;;;;;4960914;28;19926;-66
2023/07/31 13:24:49;;;;;;;;;;;21.30;70.70;;;;;;4961309;28;19934;-67
2023/07/31 13:27:18;;;;;;;;;;;21.30;70.60;;;;;;4961333;28;20468;-67
2023/07/31 13:29:47;;;;;;;;;;;21.40;70.30;;;;;;4962575;28;19933;-67
2023/07/31 13:32:14;;;;;;;;;;;21.40;70.00;;;;;;4961522;28;19936;-66
2023/07/31 13:34:41;;;;;;;;;;;21.50;69.80;;;;;;4961182;28;20440;-66
2023/07/31 13:37:08;;;;;;;;;;;21.60;69.20;;;;;;4960716;28;20449;-67
2023/07/31 13:39:35;;;;;;;;;;;21.50;69.00;;;;;;4961222;28;19931;-67
2023/07/31 13:42:06;;;;;;;;;;;21.50;68.60;;;;;;4961704;28;19930;-67
2023/07/31 13:44:33;;;;;;;;;;;21.50;68.70;;;;;;4960976;28;19966;-69
2023/07/31 13:47:01;;;;;;;;;;;21.50;69.00;;;;;;4945224;28;19938;-66
2023/07/31 13:49:28;;;;;;;;;;;21.50;68.60;;;;;;4959382;28;20017;-66
2023/07/31 13:51:56;;;;;;;;;;;21.60;68.30;;;;;;4961082;28;20013;-66
2023/07/31 13:54:23;;;;;;;;;;;21.60;68.10;;;;;;4961468;28;20556;-66
2023/07/31 13:56:50;;;;;;;;;;;21.70;68.10;;;;;;4961386;28;19937;-66
2023/07/31 13:59:17;;;;;;;;;;;21.70;67.70;;;;;;4960204;28;19966;-67
2023/07/31 14:01:45;;;;;;;;;;;21.80;67.70;;;;;;4960144;28;19937;-67
2023/07/31 14:04:13;;;;;;;;;;;21.80;67.50;;;;;;4954314;28;19930;-66
2023/07/31 14:06:40;;;;;;;;;;;21.80;67.30;;;;;;4957841;28;19926;-66
2023/07/31 14:09:07;;;;;;;;;;;21.90;67.20;;;;;;4961219;28;20021;-66
2023/07/31 14:11:34;;;;;;;;;;;21.80;67.10;;;;;;4960105;28;19930;-66
2023/07/31 14:14:07;;;;;;;;;;;21.80;66.90;;;;;;4956747;28;20085;-67
2023/07/31 14:16:34;;;;;;;;;;;21.80;67.00;;;;;;4958510;28;19934;-66
2023/07/31 14:19:02;;;;;;;;;;;21.80;67.30;;;;;;4959210;28;19940;-66
2023/07/31 14:21:30;;;;;;;;;;;21.80;67.20;;;;;;4961886;28;19926;-67
2023/07/31 14:23:57;;;;;;;;;;;21.90;67.30;;;;;;4960339;28;19937;-67
2023/07/31 14:26:24;;;;;;;;;;;22.00;67.20;;;;;;4975060;28;19930;-67